Time;durP1;ratioP1;P1;durP2;ratioP2;P2;SDS_P1;SDS_P2;PMS_P1;PMS_P2;Temp;Humidity;BMP_temperature;BMP_pressure;BME280_temperature;BME280_humidity;BME280_pressure;Samples;Min_cycle;Max_cycle;Signal;HPM_P1;HPM_P2
2023/12/07 00:02:08;;;;;;;28.85;16.80;;;2.10;99.90;;;;;;4727380;30;20064;-54
2023/12/07 00:04:35;;;;;;;29.75;17.02;;;2.10;99.90;;;;;;4704939;30;20049;-51
2023/12/07 00:07:03;;;;;;;32.92;18.17;;;2.00;99.90;;;;;;4726940;30;20096;-53
2023/12/07 00:09:30;;;;;;;28.10;16.27;;;2.00;99.90;;;;;;4724558;30;20333;-54
2023/12/07 00:11:57;;;;;;;31.13;17.20;;;2.10;99.90;;;;;;4710283;30;20095;-49
2023/12/07 00:14:24;;;;;;;27.75;16.20;;;2.00;99.90;;;;;;4717631;30;20567;-51
2023/12/07 00:16:51;;;;;;;29.75;17.08;;;2.00;99.90;;;;;;4727952;30;20041;-53
2023/12/07 00:19:18;;;;;;;34.33;18.17;;;2.00;99.90;;;;;;4727463;30;20447;-49
2023/12/07 00:21:45;;;;;;;30.10;16.90;;;2.00;99.90;;;;;;4716364;30;20492;-50
2023/12/07 00:24:12;;;;;;;28.10;16.00;;;2.00;99.90;;;;;;4726505;30;20523;-54
2023/12/07 00:26:40;;;;;;;32.65;17.38;;;2.00;99.90;;;;;;4725561;30;20521;-50
2023/12/07 00:29:07;;;;;;;27.70;15.93;;;1.90;99.90;;;;;;4712497;30;20060;-55
2023/12/07 00:31:34;;;;;;;31.48;15.77;;;1.90;99.90;;;;;;4699834;30;20053;-53
2023/12/07 00:34:01;;;;;;;30.83;17.13;;;2.00;99.90;;;;;;4714722;30;20063;-52
2023/12/07 00:36:28;;;;;;;32.40;17.25;;;2.00;99.90;;;;;;4729076;30;20052;-53
2023/12/07 00:38:55;;;;;;;28.73;16.55;;;2.00;99.90;;;;;;4728283;30;20044;-47
2023/12/07 00:41:22;;;;;;;30.55;16.98;;;2.00;99.90;;;;;;4729588;30;20060;-51
2023/12/07 00:43:49;;;;;;;31.92;17.08;;;2.00;99.90;;;;;;4724377;30;20439;-51
2023/12/07 00:46:17;;;;;;;29.88;17.00;;;2.00;99.90;;;;;;4728591;30;20463;-53
2023/12/07 00:48:44;;;;;;;31.45;17.73;;;2.00;99.90;;;;;;4730141;30;20049;-54
2023/12/07 00:51:11;;;;;;;30.75;17.27;;;2.00;99.90;;;;;;4728101;30;20048;-53
2023/12/07 00:53:38;;;;;;;28.77;15.93;;;2.00;99.90;;;;;;4724995;30;20106;-49
2023/12/07 00:56:06;;;;;;;30.35;16.05;;;2.00;99.90;;;;;;4723705;30;20520;-53
2023/12/07 00:58:34;;;;;;;29.98;16.67;;;2.00;99.90;;;;;;4729865;30;20157;-54
2023/12/07 01:01:01;;;;;;;30.23;16.42;;;2.00;99.90;;;;;;4732354;30;20130;-49
2023/12/07 01:03:28;;;;;;;28.20;16.35;;;1.90;99.90;;;;;;4727174;30;20060;-52
2023/12/07 01:05:55;;;;;;;27.65;15.23;;;2.00;99.90;;;;;;4712595;30;20060;-48
2023/12/07 01:08:23;;;;;;;26.80;15.93;;;2.00;99.90;;;;;;4728382;30;20069;-50
2023/12/07 01:10:50;;;;;;;31.23;16.42;;;2.00;99.90;;;;;;4729164;30;20120;-51
2023/12/07 01:13:17;;;;;;;24.35;15.18;;;2.00;99.90;;;;;;4729437;30;20391;-52
2023/12/07 01:15:44;;;;;;;25.98;16.00;;;2.00;99.90;;;;;;4729204;30;20143;-50
2023/12/07 01:18:11;;;;;;;28.70;16.95;;;2.00;99.90;;;;;;4713343;30;20052;-52
2023/12/07 01:20:38;;;;;;;27.98;15.60;;;2.00;99.90;;;;;;4714652;30;20060;-56
2023/12/07 01:23:06;;;;;;;26.33;15.80;;;2.10;99.90;;;;;;4728019;30;20118;-52
2023/12/07 01:25:33;;;;;;;30.20;16.35;;;2.10;99.90;;;;;;4729689;30;20300;-47
2023/12/07 01:28:00;;;;;;;30.85;16.30;;;2.10;99.90;;;;;;4726589;30;20792;-51
2023/12/07 01:30:27;;;;;;;28.95;16.40;;;2.10;99.90;;;;;;4726692;30;20048;-49
2023/12/07 01:32:55;;;;;;;31.65;16.60;;;2.10;99.90;;;;;;4728999;30;20041;-51
2023/12/07 01:35:22;;;;;;;28.48;16.17;;;2.10;99.90;;;;;;4727146;30;20077;-54
2023/12/07 01:37:49;;;;;;;28.20;14.93;;;2.10;99.90;;;;;;4723935;30;20041;-52
2023/12/07 01:40:16;;;;;;;28.92;15.98;;;2.10;99.90;;;;;;4710208;30;20154;-50
2023/12/07 01:42:52;;;;;;;26.73;15.45;;;2.10;99.90;;;;;;4728126;30;20337;-52
2023/12/07 01:45:20;;;;;;;26.08;14.60;;;2.10;99.90;;;;;;4726453;30;20511;-50
2023/12/07 01:47:50;;;;;;;28.45;15.27;;;2.10;99.90;;;;;;4724430;30;20383;-50
2023/12/07 01:50:23;;;;;;;30.27;15.75;;;2.10;99.90;;;;;;4708901;30;20055;-52
2023/12/07 01:52:54;;;;;;;29.05;15.70;;;2.10;99.90;;;;;;4728166;30;20053;-51
2023/12/07 01:55:23;;;;;;;28.15;15.57;;;2.10;99.90;;;;;;4729595;30;20523;-51
2023/12/07 01:57:50;;;;;;;26.67;14.80;;;2.00;99.90;;;;;;4727203;30;20408;-53
2023/12/07 02:00:17;;;;;;;29.38;16.20;;;2.10;99.90;;;;;;4729396;30;20157;-50
2023/12/07 02:02:46;;;;;;;25.65;15.52;;;2.00;99.90;;;;;;4727400;30;20131;-50
2023/12/07 02:05:15;;;;;;;29.13;14.93;;;2.00;99.90;;;;;;4727462;30;20387;-51
2023/12/07 02:07:42;;;;;;;27.50;15.95;;;2.00;99.90;;;;;;4728451;30;20423;-52
2023/12/07 02:10:13;;;;;;;24.58;15.52;;;2.00;99.90;;;;;;4725735;30;20341;-52
2023/12/07 02:12:40;;;;;;;26.33;15.68;;;2.00;99.90;;;;;;4726483;30;20052;-50
2023/12/07 02:15:08;;;;;;;27.63;16.58;;;2.00;99.90;;;;;;4713229;30;20040;-50
2023/12/07 02:17:52;;;;;;;29.60;15.60;;;2.00;99.90;;;;;;4708497;30;20052;-51
2023/12/07 02:20:31;;;;;;;27.10;15.27;;;2.00;99.90;;;;;;4713544;30;20151;-50
2023/12/07 02:23:05;;;;;;;24.60;15.40;;;2.00;99.90;;;;;;4719749;30;20448;-51
2023/12/07 02:25:40;;;;;;;27.90;14.68;;;2.00;99.90;;;;;;4712389;30;20538;-53
2023/12/07 02:28:07;;;;;;;27.15;14.98;;;2.00;99.90;;;;;;4707147;30;20066;-49
2023/12/07 02:30:34;;;;;;;24.85;14.65;;;2.00;99.90;;;;;;4727088;30;20703;-53
2023/12/07 02:33:02;;;;;;;24.85;15.05;;;2.00;99.90;;;;;;4711809;30;20048;-50
2023/12/07 02:35:30;;;;;;;27.85;14.50;;;2.00;99.90;;;;;;4725386;30;20122;-49
2023/12/07 02:37:58;;;;;;;24.15;14.77;;;2.10;99.90;;;;;;4725026;30;20111;-50
2023/12/07 02:40:27;;;;;;;25.15;14.40;;;2.10;99.90;;;;;;4726871;30;20076;-51
2023/12/07 02:42:55;;;;;;;25.92;14.85;;;2.00;99.90;;;;;;4726786;30;20087;-50
2023/12/07 02:45:22;;;;;;;27.95;14.27;;;2.00;99.90;;;;;;4724039;30;20151;-47
2023/12/07 02:47:49;;;;;;;23.58;13.95;;;2.10;99.90;;;;;;4721057;30;20149;-55
2023/12/07 02:50:17;;;;;;;27.83;13.75;;;2.10;99.90;;;;;;4726478;30;20392;-49
2023/12/07 02:52:44;;;;;;;22.95;13.93;;;2.10;99.90;;;;;;4693706;30;20126;-52
2023/12/07 02:55:11;;;;;;;24.20;14.18;;;2.10;99.90;;;;;;4727372;30;20530;-55
2023/12/07 02:57:38;;;;;;;24.05;14.15;;;2.10;99.90;;;;;;4710147;30;20131;-50
2023/12/07 03:00:07;;;;;;;25.05;14.35;;;2.10;99.90;;;;;;4729038;30;20126;-54
2023/12/07 03:02:37;;;;;;;26.17;14.90;;;2.10;99.90;;;;;;4729187;30;20060;-52
2023/12/07 03:05:05;;;;;;;28.88;14.30;;;2.10;99.90;;;;;;4725492;30;20147;-54
2023/12/07 03:07:33;;;;;;;24.42;14.55;;;2.10;99.90;;;;;;4710755;30;20063;-54
2023/12/07 03:10:02;;;;;;;24.25;14.20;;;2.10;99.90;;;;;;4725508;30;20053;-55
2023/12/07 03:12:30;;;;;;;26.08;15.20;;;2.00;99.90;;;;;;4721890;30;20057;-54
2023/12/07 03:14:57;;;;;;;25.58;13.88;;;2.10;99.90;;;;;;4727290;30;20047;-48
2023/12/07 03:17:25;;;;;;;23.25;13.73;;;2.10;99.90;;;;;;4722711;30;20096;-53
2023/12/07 03:19:52;;;;;;;25.05;14.35;;;2.00;99.90;;;;;;4727046;30;20463;-51
2023/12/07 03:22:19;;;;;;;24.80;14.57;;;2.00;99.90;;;;;;4707206;30;20084;-50
2023/12/07 03:24:50;;;;;;;25.10;14.00;;;2.00;99.90;;;;;;4728334;30;20083;-52
2023/12/07 03:27:18;;;;;;;25.02;15.23;;;2.00;99.90;;;;;;4698370;30;20491;-53
2023/12/07 03:29:45;;;;;;;24.90;14.88;;;2.00;99.90;;;;;;4727554;30;20052;-52
2023/12/07 03:32:12;;;;;;;25.75;14.75;;;2.00;99.90;;;;;;4724541;30;20366;-48
2023/12/07 03:34:39;;;;;;;25.52;14.45;;;2.00;99.90;;;;;;4725678;30;20499;-49
2023/12/07 03:37:07;;;;;;;27.83;14.77;;;1.90;99.90;;;;;;4728102;30;20136;-49
2023/12/07 03:39:34;;;;;;;27.27;14.75;;;1.90;99.90;;;;;;4725115;30;20450;-50
2023/12/07 03:42:01;;;;;;;26.70;15.02;;;1.90;99.90;;;;;;4712552;30;20079;-53
2023/12/07 03:44:28;;;;;;;27.55;15.65;;;1.90;99.90;;;;;;4709826;30;20048;-49
2023/12/07 03:46:55;;;;;;;26.92;15.30;;;1.90;99.90;;;;;;4722476;30;20056;-55
2023/12/07 03:49:22;;;;;;;26.67;14.88;;;1.90;99.90;;;;;;4717893;30;20107;-48
2023/12/07 03:51:49;;;;;;;29.90;16.45;;;1.90;99.90;;;;;;4719721;30;20042;-49
2023/12/07 03:54:16;;;;;;;32.10;17.08;;;1.90;99.90;;;;;;4699187;30;20059;-55
2023/12/07 03:56:44;;;;;;;28.73;16.35;;;1.90;99.90;;;;;;4730295;30;20483;-51
2023/12/07 03:59:11;;;;;;;31.65;15.60;;;1.80;99.90;;;;;;4728913;30;20132;-52
2023/12/07 04:01:38;;;;;;;31.13;17.15;;;1.80;99.90;;;;;;4729793;30;20131;-52
2023/12/07 04:04:05;;;;;;;32.80;17.25;;;1.80;99.90;;;;;;4712305;30;20239;-52
2023/12/07 04:06:32;;;;;;;26.48;15.60;;;1.70;99.90;;;;;;4725120;30;20061;-54
2023/12/07 04:08:59;;;;;;;28.75;15.70;;;1.70;99.90;;;;;;4728193;30;20052;-57
2023/12/07 04:11:26;;;;;;;31.13;17.33;;;1.70;99.90;;;;;;4732694;30;20423;-53
2023/12/07 04:13:54;;;;;;;32.05;18.25;;;1.70;99.90;;;;;;4727178;30;20511;-54
2023/12/07 04:16:21;;;;;;;34.00;17.15;;;1.70;99.90;;;;;;4729930;30;20064;-51
2023/12/07 04:18:48;;;;;;;31.67;17.20;;;1.70;99.90;;;;;;4720980;30;20221;-50
2023/12/07 04:21:15;;;;;;;33.85;17.23;;;1.70;99.90;;;;;;4716247;30;20056;-54
2023/12/07 04:23:42;;;;;;;31.77;17.75;;;1.80;99.90;;;;;;4722445;30;20503;-50
2023/12/07 04:26:10;;;;;;;34.13;18.63;;;1.70;99.90;;;;;;4728712;30;20550;-53
2023/12/07 04:28:37;;;;;;;36.08;18.85;;;1.70;99.90;;;;;;4728964;30;20056;-54
2023/12/07 04:31:05;;;;;;;32.35;18.58;;;1.60;99.90;;;;;;4728594;30;20244;-52
2023/12/07 04:33:32;;;;;;;33.35;18.75;;;1.60;99.90;;;;;;4728717;30;20079;-53
2023/12/07 04:35:59;;;;;;;31.92;17.77;;;1.60;99.90;;;;;;4719379;30;20384;-49
2023/12/07 04:38:26;;;;;;;37.97;19.10;;;1.60;99.90;;;;;;4698926;30;20049;-50
2023/12/07 04:40:53;;;;;;;34.97;19.70;;;1.60;99.90;;;;;;4684820;30;20150;-51
2023/12/07 04:43:20;;;;;;;32.67;18.83;;;1.60;99.90;;;;;;4710237;30;20058;-48
2023/12/07 04:45:48;;;;;;;37.17;19.52;;;1.60;99.90;;;;;;4728867;30;20060;-54
2023/12/07 04:48:15;;;;;;;37.90;20.08;;;1.60;99.90;;;;;;4724385;30;20166;-53
2023/12/07 04:50:43;;;;;;;37.35;20.17;;;1.60;99.90;;;;;;4726819;30;20091;-55
2023/12/07 04:53:10;;;;;;;42.33;20.17;;;1.60;99.90;;;;;;4726775;30;20131;-53
2023/12/07 04:55:37;;;;;;;37.47;20.40;;;1.60;99.90;;;;;;4711438;30;20053;-53
2023/12/07 04:58:04;;;;;;;38.10;20.23;;;1.60;99.90;;;;;;4727695;30;20051;-49
2023/12/07 05:00:32;;;;;;;40.80;19.92;;;1.60;99.90;;;;;;4727000;30;20111;-48
2023/12/07 05:02:59;;;;;;;37.47;19.98;;;1.50;99.90;;;;;;4723494;30;20431;-55
2023/12/07 05:05:26;;;;;;;38.60;21.10;;;1.50;99.90;;;;;;4709131;30;20064;-52
2023/12/07 05:07:53;;;;;;;39.28;20.52;;;1.50;99.90;;;;;;4728551;30;20051;-53
2023/12/07 05:10:20;;;;;;;36.38;19.35;;;1.40;99.90;;;;;;4728280;30;20059;-50
2023/12/07 05:12:48;;;;;;;39.20;21.02;;;1.40;99.90;;;;;;4728697;30;20577;-53
2023/12/07 05:15:15;;;;;;;35.20;20.45;;;1.30;99.90;;;;;;4729731;30;20416;-51
2023/12/07 05:17:43;;;;;;;41.65;21.30;;;1.30;99.90;;;;;;4728213;30;20064;-53
2023/12/07 05:20:12;;;;;;;38.53;22.23;;;1.30;99.90;;;;;;4729820;30;20060;-52
2023/12/07 05:22:39;;;;;;;43.28;21.25;;;1.20;99.90;;;;;;4724858;30;20064;-53
2023/12/07 05:25:07;;;;;;;36.85;20.10;;;1.20;99.90;;;;;;4728494;30;20083;-51
2023/12/07 05:27:34;;;;;;;43.35;23.05;;;1.10;99.90;;;;;;4708220;30;20190;-52
2023/12/07 05:30:01;;;;;;;39.33;20.67;;;1.10;99.90;;;;;;4728641;30;20164;-48
2023/12/07 05:32:29;;;;;;;42.00;22.75;;;1.00;99.90;;;;;;4722421;30;20062;-54
2023/12/07 05:34:56;;;;;;;42.65;22.40;;;0.90;99.90;;;;;;4726325;30;20095;-51
2023/12/07 05:37:23;;;;;;;46.83;24.13;;;0.90;99.90;;;;;;4729039;30;20052;-50
2023/12/07 05:39:51;;;;;;;47.35;24.35;;;0.90;99.90;;;;;;4724812;30;20060;-54
2023/12/07 05:42:18;;;;;;;48.08;25.08;;;0.90;99.90;;;;;;4728120;30;20286;-52
2023/12/07 05:44:46;;;;;;;49.90;25.67;;;0.90;99.90;;;;;;4721007;30;20733;-49
2023/12/07 05:47:13;;;;;;;44.63;24.48;;;0.90;99.90;;;;;;4729936;30;20524;-53
2023/12/07 05:49:40;;;;;;;49.03;23.92;;;0.80;99.90;;;;;;4713498;30;20057;-49
2023/12/07 05:52:07;;;;;;;49.42;25.85;;;0.70;99.90;;;;;;4713275;30;20068;-48
2023/12/07 05:54:34;;;;;;;49.05;24.20;;;0.80;99.90;;;;;;4706735;30;20289;-50
2023/12/07 05:57:02;;;;;;;52.10;25.20;;;0.70;99.90;;;;;;4727912;30;20092;-52
2023/12/07 05:59:29;;;;;;;49.03;25.08;;;0.70;99.90;;;;;;4725290;30;20078;-55
2023/12/07 06:01:56;;;;;;;48.13;24.25;;;0.60;99.90;;;;;;4712963;30;20061;-49
2023/12/07 06:04:23;;;;;;;51.00;23.90;;;0.50;99.90;;;;;;4710749;30;20088;-48
2023/12/07 06:06:51;;;;;;;48.25;24.55;;;0.50;99.90;;;;;;4729106;30;20598;-45
2023/12/07 06:09:18;;;;;;;48.60;24.95;;;0.40;99.90;;;;;;4726068;30;20141;-51
2023/12/07 06:11:46;;;;;;;40.92;23.42;;;0.40;99.90;;;;;;4729748;30;20056;-48
2023/12/07 06:14:14;;;;;;;44.45;22.77;;;0.30;99.90;;;;;;4726363;30;20486;-50
2023/12/07 06:16:41;;;;;;;48.25;24.63;;;0.20;99.90;;;;;;4728819;30;20064;-48
2023/12/07 06:19:08;;;;;;;50.50;25.13;;;0.20;99.90;;;;;;4727026;30;20142;-57
2023/12/07 06:21:35;;;;;;;54.33;27.73;;;0.20;99.90;;;;;;4729030;30;20166;-53
2023/12/07 06:24:02;;;;;;;49.35;25.33;;;0.30;99.90;;;;;;4725045;30;20151;-49
2023/12/07 06:26:30;;;;;;;50.35;24.55;;;0.30;99.90;;;;;;4726517;30;20064;-51
2023/12/07 06:28:57;;;;;;;48.38;24.40;;;0.20;99.90;;;;;;4727858;30;20070;-52
2023/12/07 06:31:24;;;;;;;54.17;26.10;;;0.20;99.90;;;;;;4725402;30;20048;-53
2023/12/07 06:33:51;;;;;;;50.95;26.83;;;0.30;99.90;;;;;;4726126;30;20098;-51
2023/12/07 06:36:22;;;;;;;56.42;28.05;;;0.40;99.90;;;;;;4710172;30;20091;-49
2023/12/07 06:38:50;;;;;;;60.40;28.80;;;0.40;99.90;;;;;;4710330;30;20076;-55
2023/12/07 06:41:17;;;;;;;56.00;27.33;;;0.40;99.90;;;;;;4720940;30;20080;-49
2023/12/07 06:43:44;;;;;;;58.80;28.08;;;0.40;99.90;;;;;;4721153;30;20138;-54
2023/12/07 06:46:13;;;;;;;60.95;27.65;;;0.40;99.90;;;;;;4707056;30;20523;-54
2023/12/07 06:48:41;;;;;;;55.70;27.17;;;0.50;99.90;;;;;;4708157;30;20579;-53
2023/12/07 06:51:08;;;;;;;56.92;28.25;;;0.50;99.90;;;;;;4727040;30;20048;-53
2023/12/07 06:53:35;;;;;;;59.13;28.35;;;0.50;99.90;;;;;;4726182;30;20076;-49
2023/12/07 06:56:02;;;;;;;57.30;29.75;;;0.50;99.90;;;;;;4711848;30;20059;-54
2023/12/07 06:58:30;;;;;;;55.97;27.25;;;0.50;99.90;;;;;;4720215;30;20079;-51
2023/12/07 07:00:57;;;;;;;56.63;29.15;;;0.50;99.90;;;;;;4704158;30;20069;-52
2023/12/07 07:03:25;;;;;;;60.25;29.23;;;0.50;99.90;;;;;;4717887;30;20080;-49
2023/12/07 07:05:52;;;;;;;64.85;29.42;;;0.50;99.90;;;;;;4729496;30;20234;-53
2023/12/07 07:08:19;;;;;;;60.40;28.13;;;0.50;99.90;;;;;;4726946;30;20539;-51
2023/12/07 07:10:46;;;;;;;60.92;29.48;;;0.50;99.90;;;;;;4723721;30;20049;-52
2023/12/07 07:13:16;;;;;;;62.10;28.80;;;0.40;99.90;;;;;;4727521;30;20174;-53
2023/12/07 07:15:44;;;;;;;58.80;27.50;;;0.40;99.90;;;;;;4726773;30;20122;-53
2023/12/07 07:18:11;;;;;;;64.95;29.58;;;0.40;99.90;;;;;;4726146;30;20213;-49
2023/12/07 07:20:39;;;;;;;64.55;29.48;;;0.40;99.90;;;;;;4727526;30;20425;-54
2023/12/07 07:23:08;;;;;;;58.47;28.00;;;0.40;99.90;;;;;;4728694;30;20060;-48
2023/12/07 07:25:35;;;;;;;56.53;29.15;;;0.40;99.90;;;;;;4726964;30;20077;-50
2023/12/07 07:28:03;;;;;;;62.60;29.42;;;0.50;99.90;;;;;;4731855;30;20064;-51
2023/12/07 07:30:30;;;;;;;58.70;29.95;;;0.60;99.90;;;;;;4713144;30;20077;-49
2023/12/07 07:32:58;;;;;;;59.80;30.20;;;0.70;99.90;;;;;;4700805;30;20040;-54
2023/12/07 07:35:27;;;;;;;66.05;30.90;;;0.80;99.90;;;;;;4730618;30;20128;-54
2023/12/07 07:37:55;;;;;;;65.80;30.10;;;1.00;99.90;;;;;;4731583;30;20048;-50
2023/12/07 07:40:22;;;;;;;60.10;30.67;;;1.10;99.90;;;;;;4730219;30;20057;-51
2023/12/07 07:42:50;;;;;;;62.42;30.83;;;1.30;99.90;;;;;;4714656;30;20120;-57
2023/12/07 07:45:17;;;;;;;57.05;28.75;;;1.30;99.90;;;;;;4728509;30;20493;-53
2023/12/07 07:47:44;;;;;;;66.93;30.63;;;1.40;99.90;;;;;;4714494;30;20140;-57
2023/12/07 07:50:11;;;;;;;68.43;31.35;;;1.50;99.90;;;;;;4726524;30;20064;-55
2023/12/07 07:52:40;;;;;;;60.97;30.73;;;1.60;99.90;;;;;;4727291;30;20446;-50
2023/12/07 07:55:11;;;;;;;52.72;28.13;;;1.60;99.90;;;;;;4731247;30;20075;-52
2023/12/07 07:57:39;;;;;;;59.60;29.90;;;1.70;99.90;;;;;;4729147;30;20057;-53
2023/12/07 08:00:08;;;;;;;54.03;28.35;;;1.70;99.90;;;;;;4730046;30;20052;-48
2023/12/07 08:02:36;;;;;;;59.30;28.33;;;1.70;99.90;;;;;;4725935;30;20049;-50
2023/12/07 08:05:04;;;;;;;51.17;26.80;;;1.70;99.90;;;;;;4729837;30;20071;-48
2023/12/07 08:07:31;;;;;;;54.60;28.02;;;1.70;99.90;;;;;;4730474;30;20056;-50
2023/12/07 08:09:58;;;;;;;51.58;27.55;;;1.70;99.90;;;;;;4728180;30;20048;-56
2023/12/07 08:12:26;;;;;;;51.00;27.27;;;1.70;99.90;;;;;;4728106;30;20079;-52
2023/12/07 08:14:53;;;;;;;50.40;27.08;;;1.80;99.90;;;;;;4729528;30;20064;-54
2023/12/07 08:17:21;;;;;;;50.67;26.98;;;1.80;99.90;;;;;;4729778;30;20049;-47
2023/12/07 08:19:48;;;;;;;50.85;26.77;;;2.00;99.90;;;;;;4730543;30;20036;-52
2023/12/07 08:22:16;;;;;;;51.20;27.20;;;2.00;99.90;;;;;;4728167;30;20060;-49
2023/12/07 08:24:44;;;;;;;47.90;24.33;;;2.10;99.90;;;;;;4729880;30;20057;-50
2023/12/07 08:27:12;;;;;;;52.90;26.70;;;2.10;99.90;;;;;;4727238;30;20059;-53
2023/12/07 08:29:39;;;;;;;46.28;24.77;;;2.20;99.90;;;;;;4729247;30;20500;-50
2023/12/07 08:32:06;;;;;;;40.92;23.35;;;2.30;99.90;;;;;;4727932;30;20063;-55
2023/12/07 08:34:34;;;;;;;46.60;25.08;;;2.30;99.90;;;;;;4730898;30;20131;-52
2023/12/07 08:37:03;;;;;;;46.67;23.60;;;2.20;99.90;;;;;;4728813;30;20326;-51
2023/12/07 08:39:30;;;;;;;49.83;25.67;;;2.20;99.90;;;;;;4727544;30;20053;-54
2023/12/07 08:41:58;;;;;;;48.28;25.13;;;2.20;99.90;;;;;;4711044;30;20053;-51
2023/12/07 08:44:25;;;;;;;47.00;25.05;;;2.20;99.90;;;;;;4727750;30;20506;-49
2023/12/07 08:46:54;;;;;;;47.17;25.17;;;2.20;99.90;;;;;;4728937;30;20135;-55
2023/12/07 08:49:21;;;;;;;42.95;24.60;;;2.20;99.90;;;;;;4727550;30;20048;-51
2023/12/07 08:51:48;;;;;;;50.85;25.77;;;2.30;99.90;;;;;;4709030;30;20620;-53
2023/12/07 08:54:36;;;;;;;47.17;25.65;;;2.40;99.90;;;;;;4729484;30;20333;-51
2023/12/07 08:57:03;;;;;;;41.30;23.92;;;2.50;99.90;;;;;;4699421;30;20147;-51
2023/12/07 08:59:30;;;;;;;49.10;25.17;;;2.60;99.90;;;;;;4714769;30;20060;-51
2023/12/07 09:01:57;;;;;;;48.63;25.05;;;2.70;99.90;;;;;;4721746;30;20283;-55
2023/12/07 09:04:25;;;;;;;42.58;23.98;;;2.80;99.90;;;;;;4717164;30;20503;-55
2023/12/07 09:06:52;;;;;;;45.35;24.83;;;2.90;99.90;;;;;;4727903;30;20036;-54
2023/12/07 09:09:20;;;;;;;45.78;25.05;;;3.00;99.90;;;;;;4709305;30;20057;-52
2023/12/07 09:11:47;;;;;;;45.33;24.20;;;3.10;99.90;;;;;;4726248;30;20080;-50
2023/12/07 09:14:14;;;;;;;41.40;23.55;;;3.10;99.90;;;;;;4727476;30;20126;-52
2023/12/07 09:16:45;;;;;;;41.00;22.85;;;3.10;99.90;;;;;;4727206;30;20379;-54
2023/12/07 09:19:13;;;;;;;38.85;22.67;;;3.10;99.90;;;;;;4725772;30;20482;-49
2023/12/07 09:21:41;;;;;;;40.13;23.77;;;3.10;99.90;;;;;;4711207;30;20053;-51
2023/12/07 09:24:08;;;;;;;41.72;21.90;;;3.20;99.90;;;;;;4724075;30;20344;-56
2023/12/07 09:26:36;;;;;;;38.63;22.42;;;3.20;99.90;;;;;;4727953;30;20389;-53
2023/12/07 09:29:04;;;;;;;41.72;22.98;;;3.20;99.90;;;;;;4728689;30;20127;-53
2023/12/07 09:31:31;;;;;;;38.50;22.35;;;3.30;99.90;;;;;;4711260;30;20072;-54
2023/12/07 09:33:59;;;;;;;38.78;22.17;;;3.30;99.90;;;;;;4726824;30;20053;-55
2023/12/07 09:36:38;;;;;;;37.00;22.02;;;3.50;99.90;;;;;;4709849;30;21439;-54
2023/12/07 09:39:06;;;;;;;34.90;20.33;;;3.60;99.90;;;;;;4727175;30;20122;-52
2023/12/07 09:41:33;;;;;;;38.75;21.80;;;3.70;99.90;;;;;;4729604;30;20415;-51
2023/12/07 09:44:00;;;;;;;47.20;25.08;;;3.90;99.90;;;;;;4724187;30;20494;-55
2023/12/07 09:46:29;;;;;;;42.67;25.23;;;4.20;99.90;;;;;;4711957;30;20480;-56
2023/12/07 09:48:57;;;;;;;37.88;22.10;;;4.40;99.90;;;;;;4721284;30;20048;-51
2023/12/07 09:51:25;;;;;;;34.83;21.70;;;4.50;99.90;;;;;;4718747;30;20049;-53
2023/12/07 09:53:55;;;;;;;36.15;21.38;;;4.50;99.90;;;;;;4726560;30;20068;-57
2023/12/07 09:56:22;;;;;;;34.63;21.15;;;4.60;99.90;;;;;;4728400;30;20055;-50
2023/12/07 09:58:49;;;;;;;32.95;20.77;;;4.70;99.90;;;;;;4728260;30;20640;-54
2023/12/07 10:01:17;;;;;;;36.45;22.17;;;4.70;99.90;;;;;;4706054;30;20154;-58
2023/12/07 10:03:46;;;;;;;38.60;21.55;;;4.70;99.90;;;;;;4728284;30;20055;-51
2023/12/07 10:06:15;;;;;;;40.53;22.60;;;4.80;99.90;;;;;;4729506;30;20051;-50
2023/12/07 10:08:43;;;;;;;35.25;21.23;;;4.70;99.90;;;;;;4722270;30;20060;-54
2023/12/07 10:11:15;;;;;;;36.65;21.08;;;4.90;99.90;;;;;;4728755;30;20087;-53
2023/12/07 10:13:42;;;;;;;33.33;20.50;;;4.90;99.90;;;;;;4709322;30;20343;-55
2023/12/07 10:16:15;;;;;;;36.75;20.77;;;4.90;99.90;;;;;;4724470;30;20064;-54
2023/12/07 10:18:42;;;;;;;33.97;21.23;;;4.90;99.90;;;;;;4724971;30;20451;-49
2023/12/07 10:21:12;;;;;;;31.50;19.75;;;4.60;99.90;;;;;;4724533;30;20071;-53
2023/12/07 10:23:46;;;;;;;37.92;21.63;;;4.50;99.90;;;;;;4691415;30;20056;-50
2023/12/07 10:26:17;;;;;;;67.07;37.95;;;4.50;99.90;;;;;;4716078;30;20170;-55
2023/12/07 10:28:46;;;;;;;38.00;20.60;;;4.60;99.90;;;;;;4701160;30;20056;-54
2023/12/07 10:31:18;;;;;;;35.22;19.33;;;4.60;99.90;;;;;;4707704;30;20063;-51
2023/12/07 10:33:50;;;;;;;33.38;20.15;;;4.60;99.90;;;;;;4727069;30;20067;-53
2023/12/07 10:36:17;;;;;;;36.00;20.38;;;4.80;99.90;;;;;;4710425;30;20076;-50
2023/12/07 10:38:45;;;;;;;35.72;20.67;;;4.70;99.90;;;;;;4727772;30;20060;-52
2023/12/07 10:41:16;;;;;;;32.90;20.05;;;4.60;99.90;;;;;;4729463;30;20056;-51
2023/12/07 10:43:46;;;;;;;33.40;19.45;;;4.80;99.90;;;;;;4723490;30;20055;-54
2023/12/07 10:46:18;;;;;;;31.05;19.85;;;4.90;99.90;;;;;;4726759;30;20060;-57
2023/12/07 10:48:47;;;;;;;33.88;19.85;;;4.70;99.90;;;;;;4727800;30;20058;-57
2023/12/07 10:51:30;;;;;;;33.67;19.23;;;4.40;99.90;;;;;;4711245;30;20419;-54
2023/12/07 10:53:58;;;;;;;33.60;18.98;;;4.50;99.90;;;;;;4726189;30;20139;-56
2023/12/07 10:56:34;;;;;;;32.58;19.77;;;4.60;99.90;;;;;;4713187;30;20577;-54
2023/12/07 10:59:04;;;;;;;33.22;20.02;;;4.60;99.90;;;;;;4726383;30;20493;-54
2023/12/07 11:01:32;;;;;;;36.60;21.67;;;4.70;99.90;;;;;;4724825;30;20498;-56
2023/12/07 11:04:00;;;;;;;35.75;20.88;;;4.70;99.90;;;;;;4709259;30;20605;-54
2023/12/07 11:06:28;;;;;;;34.60;20.02;;;4.70;99.90;;;;;;4726923;30;20056;-55
2023/12/07 11:09:02;;;;;;;32.15;19.23;;;4.80;99.90;;;;;;4708691;30;20056;-51
2023/12/07 11:11:48;;;;;;;32.13;18.48;;;4.60;99.90;;;;;;4726299;30;20446;-55
2023/12/07 11:14:17;;;;;;;29.13;17.90;;;4.50;99.90;;;;;;4714524;30;20048;-49
2023/12/07 11:16:46;;;;;;;32.45;19.70;;;4.50;99.90;;;;;;4712276;30;20542;-49
2023/12/07 11:19:32;;;;;;;29.30;19.13;;;4.40;99.90;;;;;;4728936;30;20056;-52
2023/12/07 11:22:06;;;;;;;31.10;19.52;;;4.40;99.90;;;;;;4725214;30;20060;-55
2023/12/07 11:24:35;;;;;;;32.85;19.42;;;4.40;99.90;;;;;;4709352;30;20053;-52
2023/12/07 11:27:03;;;;;;;30.52;17.60;;;4.70;99.90;;;;;;4708101;30;20520;-54
2023/12/07 11:29:31;;;;;;;31.98;20.10;;;4.70;99.90;;;;;;4727456;30;20060;-48
2023/12/07 11:32:06;;;;;;;34.20;19.70;;;4.70;99.90;;;;;;4724689;30;20420;-50
2023/12/07 11:34:45;;;;;;;36.22;20.30;;;4.90;99.90;;;;;;4724262;30;20052;-51
2023/12/07 11:37:17;;;;;;;31.05;19.30;;;5.10;99.90;;;;;;4723191;30;20059;-54
2023/12/07 11:39:45;;;;;;;;;;;5.10;99.90;;;;;;4725238;30;20060;-51
2023/12/07 11:42:14;;;;;;;33.08;18.40;;;5.10;99.90;;;;;;4726794;30;19930;-55
2023/12/07 11:44:44;;;;;;;31.48;19.08;;;5.10;99.90;;;;;;4724551;30;20112;-52
2023/12/07 11:47:16;;;;;;;35.25;18.95;;;5.20;99.90;;;;;;4728439;30;20131;-52
2023/12/07 11:49:43;;;;;;;;;;;5.20;99.90;;;;;;4722431;30;20044;-52
2023/12/07 11:52:19;;;;;;;29.60;17.85;;;5.10;99.90;;;;;;4724571;30;20436;-54
2023/12/07 11:54:47;;;;;;;30.60;18.35;;;5.00;99.90;;;;;;4712562;30;20049;-51
2023/12/07 11:57:15;;;;;;;30.83;17.52;;;4.90;99.90;;;;;;4732315;30;20052;-51
2023/12/07 11:59:47;;;;;;;31.52;19.13;;;4.90;99.90;;;;;;4725142;30;20143;-54
2023/12/07 12:02:16;;;;;;;33.50;19.58;;;5.00;99.90;;;;;;4713629;30;20487;-54
2023/12/07 12:04:44;;;;;;;30.80;19.10;;;4.90;99.90;;;;;;4723362;30;20122;-53
2023/12/07 12:07:11;;;;;;;32.45;19.45;;;4.80;99.90;;;;;;4727711;30;20143;-58
2023/12/07 12:09:40;;;;;;;28.23;17.90;;;4.90;99.90;;;;;;4726458;30;20065;-52
2023/12/07 12:12:07;;;;;;;30.30;19.17;;;5.00;99.90;;;;;;4726047;30;20060;-53
2023/12/07 12:14:34;;;;;;;33.83;20.13;;;5.00;99.90;;;;;;4717061;30;20064;-52
2023/12/07 12:17:01;;;;;;;27.35;18.45;;;5.00;99.90;;;;;;4729808;30;20060;-52
2023/12/07 12:19:30;;;;;;;33.58;19.80;;;4.90;99.90;;;;;;4730032;30;20535;-55
2023/12/07 12:22:04;;;;;;;32.10;20.15;;;4.80;99.90;;;;;;4723008;30;20087;-52
2023/12/07 12:24:37;;;;;;;29.77;17.42;;;5.00;99.90;;;;;;4713790;30;20118;-55
2023/12/07 12:27:05;;;;;;;28.75;17.65;;;5.10;99.90;;;;;;4726707;30;20064;-53
2023/12/07 12:29:33;;;;;;;27.55;17.30;;;5.00;99.90;;;;;;4699924;30;20075;-51
2023/12/07 12:32:05;;;;;;;28.10;17.50;;;5.10;99.90;;;;;;4707713;30;20440;-53
2023/12/07 12:34:34;;;;;;;26.15;16.92;;;5.30;99.90;;;;;;4728901;30;20144;-56
2023/12/07 12:37:05;;;;;;;26.02;15.88;;;5.10;99.90;;;;;;4715131;30;20131;-50
2023/12/07 12:39:34;;;;;;;20.80;14.65;;;5.20;99.90;;;;;;4728162;30;20052;-49
2023/12/07 12:42:02;;;;;;;23.50;14.60;;;5.10;99.90;;;;;;4730087;30;20538;-52
2023/12/07 12:44:31;;;;;;;21.13;14.30;;;5.20;99.90;;;;;;4724644;30;20053;-52